createdAt,value
2018-08-20T00:02:07.152Z,68.40
2018-08-20T00:04:41.861Z,68.40
2018-08-20T00:07:11.605Z,68.80
2018-08-20T00:09:46.025Z,68.40
2018-08-20T00:12:17.486Z,68.20
2018-08-20T00:14:47.425Z,68.00
2018-08-20T00:17:17.158Z,67.60
2018-08-20T00:19:46.868Z,68.20
2018-08-20T00:22:16.506Z,68.40
2018-08-20T00:24:56.457Z,68.40
2018-08-20T00:27:26.161Z,68.30
2018-08-20T00:29:55.841Z,68.50
2018-08-20T00:32:26.083Z,68.50
2018-08-20T00:34:55.647Z,68.60
2018-08-20T00:37:25.284Z,68.40
2018-08-20T00:39:55.263Z,68.50
2018-08-20T00:42:24.874Z,68.70
2018-08-20T00:44:54.441Z,68.60
2018-08-20T00:47:24.031Z,68.70
2018-08-20T00:49:53.738Z,68.90
2018-08-20T00:52:23.990Z,69.10
2018-08-20T00:54:53.626Z,69.40
2018-08-20T00:57:23.218Z,70.70
2018-08-20T00:59:52.972Z,70.30
2018-08-20T01:02:25.734Z,70.70
2018-08-20T01:04:55.514Z,70.70
2018-08-20T01:07:25.366Z,71.40
2018-08-20T01:09:55.610Z,71.10
2018-08-20T01:12:25.787Z,71.00
2018-08-20T01:14:55.373Z,71.20
2018-08-20T01:17:25.177Z,71.00
2018-08-20T01:19:54.833Z,71.00
2018-08-20T01:22:24.431Z,71.40
2018-08-20T01:24:54.237Z,71.40
2018-08-20T01:27:28.928Z,71.50
2018-08-20T01:29:58.589Z,71.60
2018-08-20T01:32:28.271Z,71.70
2018-08-20T01:35:19.013Z,71.60
2018-08-20T01:37:48.773Z,71.90
2018-08-20T01:40:18.523Z,71.80
2018-08-20T01:42:48.219Z,71.80
2018-08-20T01:45:17.907Z,71.80
2018-08-20T01:47:47.457Z,71.90
2018-08-20T01:50:17.167Z,72.00
2018-08-20T01:52:46.826Z,71.70
2018-08-20T01:55:16.542Z,71.90
2018-08-20T01:57:46.216Z,72.00
2018-08-20T02:00:15.932Z,72.00
2018-08-20T02:02:49.627Z,72.10
2018-08-20T02:05:19.346Z,72.10
2018-08-20T02:07:48.954Z,72.10
2018-08-20T02:10:18.741Z,72.20
2018-08-20T02:12:48.506Z,72.20
2018-08-20T02:15:18.214Z,72.20
2018-08-20T02:17:47.818Z,72.30
2018-08-20T02:20:17.532Z,72.20
2018-08-20T02:22:47.242Z,72.50
2018-08-20T02:25:16.877Z,72.40
2018-08-20T02:27:46.660Z,72.30
2018-08-20T02:30:16.275Z,72.30
2018-08-20T02:32:46.016Z,72.50
2018-08-20T02:35:15.800Z,72.40
2018-08-20T02:37:46.166Z,72.50
2018-08-20T02:40:17.189Z,72.50
2018-08-20T02:42:47.118Z,72.50
2018-08-20T02:45:19.209Z,72.50
2018-08-20T02:47:48.902Z,72.50
2018-08-20T02:50:18.875Z,72.50
2018-08-20T02:56:21.077Z,72.70
2018-08-20T02:58:50.706Z,72.60
2018-08-20T03:01:20.431Z,72.60
2018-08-20T03:03:50.166Z,72.70
2018-08-20T03:06:19.839Z,73.00
2018-08-20T03:08:49.683Z,73.00
2018-08-20T03:11:19.322Z,73.30
2018-08-20T03:13:49.197Z,73.40
2018-08-20T03:16:19.155Z,74.60
2018-08-20T03:18:48.753Z,73.80
2018-08-20T03:21:18.457Z,73.90
2018-08-20T03:23:48.112Z,74.50
2018-08-20T03:26:17.828Z,74.40
2018-08-20T03:28:47.543Z,74.40
2018-08-20T03:31:17.205Z,74.60
2018-08-20T03:33:46.883Z,74.40
2018-08-20T03:36:16.767Z,74.40
2018-08-20T03:38:46.954Z,74.20
2018-08-20T03:41:16.660Z,74.40
2018-08-20T03:43:46.353Z,74.90
2018-08-20T03:46:16.083Z,75.10
2018-08-20T03:48:45.776Z,75.20
2018-08-20T03:51:15.635Z,75.20
2018-08-20T03:53:45.892Z,74.90
2018-08-20T03:56:15.592Z,75.70
2018-08-20T03:58:45.286Z,75.40
2018-08-20T04:01:15.020Z,75.60
2018-08-20T04:03:44.669Z,75.40
2018-08-20T04:06:14.484Z,75.30
2018-08-20T04:08:44.134Z,75.40
2018-08-20T04:11:13.805Z,75.70
2018-08-20T04:13:43.490Z,75.90
2018-08-20T04:16:13.129Z,75.80
2018-08-20T04:18:42.723Z,75.80
2018-08-20T04:21:12.453Z,75.80
2018-08-20T04:23:42.167Z,75.80
2018-08-20T04:26:11.875Z,75.80
2018-08-20T04:28:41.514Z,75.70
2018-08-20T04:31:11.191Z,75.70
2018-08-20T04:33:40.882Z,75.50
2018-08-20T04:36:10.549Z,75.80
2018-08-20T04:38:40.147Z,76.00
2018-08-20T04:41:09.874Z,75.80
2018-08-20T04:43:39.671Z,75.90
2018-08-20T04:46:09.367Z,76.00
2018-08-20T04:48:39.005Z,76.60
2018-08-20T04:51:08.825Z,76.40
2018-08-20T04:53:38.394Z,76.40
2018-08-20T04:56:08.080Z,76.40
2018-08-20T04:58:38.793Z,76.60
2018-08-20T05:01:08.478Z,76.40
2018-08-20T05:03:38.035Z,76.60
2018-08-20T05:06:07.880Z,76.90
2018-08-20T05:08:37.523Z,77.70
2018-08-20T05:11:07.078Z,76.80
2018-08-20T05:13:36.622Z,76.80
2018-08-20T05:16:06.260Z,77.20
2018-08-20T05:18:35.971Z,76.70
2018-08-20T05:21:05.634Z,76.80
2018-08-20T05:23:35.371Z,76.60
2018-08-20T05:26:05.180Z,76.60
2018-08-20T05:28:34.828Z,76.70
2018-08-20T05:31:04.508Z,76.50
2018-08-20T05:33:34.255Z,76.70
2018-08-20T05:36:03.981Z,77.00
2018-08-20T05:38:33.677Z,76.70
2018-08-20T05:41:03.369Z,76.70
2018-08-20T05:43:32.999Z,77.30
2018-08-20T05:46:02.622Z,77.30
2018-08-20T05:48:32.475Z,77.20
2018-08-20T05:51:02.114Z,77.10
2018-08-20T05:53:31.823Z,77.20
2018-08-20T05:56:01.617Z,77.30
2018-08-20T05:58:31.292Z,77.10
2018-08-20T06:01:01.009Z,77.40
2018-08-20T06:03:30.950Z,78.10
2018-08-20T06:06:00.734Z,78.00
2018-08-20T06:08:30.411Z,78.00
2018-08-20T06:11:00.098Z,78.10
2018-08-20T06:13:29.834Z,78.30
2018-08-20T06:15:59.720Z,79.20
2018-08-20T06:18:29.344Z,78.50
2018-08-20T06:20:58.930Z,78.70
2018-08-20T06:23:28.613Z,79.10
2018-08-20T06:25:58.470Z,78.70
2018-08-20T06:28:28.588Z,78.70
2018-08-20T06:30:58.366Z,78.80
2018-08-20T06:33:27.936Z,78.60
2018-08-20T06:35:57.635Z,78.80
2018-08-20T06:38:27.492Z,79.10
2018-08-20T06:40:57.106Z,78.90
2018-08-20T06:43:26.803Z,79.00
2018-08-20T06:45:56.406Z,79.10
2018-08-20T06:48:26.028Z,79.20
2018-08-20T06:50:55.628Z,79.20
2018-08-20T06:53:25.479Z,79.20
2018-08-20T06:55:55.152Z,79.20
2018-08-20T06:58:24.869Z,79.00
2018-08-20T07:00:54.560Z,79.40
2018-08-20T07:03:24.175Z,79.10
2018-08-20T07:05:53.816Z,79.10
2018-08-20T07:08:23.425Z,79.10
2018-08-20T07:10:53.057Z,79.20
2018-08-20T07:13:38.707Z,79.50
2018-08-20T07:16:09.539Z,79.60
2018-08-20T07:18:39.332Z,80.50
2018-08-20T07:21:09.163Z,79.60
2018-08-20T07:23:38.904Z,80.10
2018-08-20T07:26:08.645Z,80.00
2018-08-20T07:28:38.339Z,80.00
2018-08-20T07:31:07.989Z,79.90
2018-08-20T07:33:37.610Z,79.80
2018-08-20T07:36:07.447Z,79.70
2018-08-20T07:38:37.147Z,79.70
2018-08-20T07:41:08.224Z,79.60
2018-08-20T07:43:37.914Z,79.70
2018-08-20T07:46:07.698Z,79.80
2018-08-20T07:48:37.407Z,79.60
2018-08-20T07:51:07.294Z,79.70
2018-08-20T07:53:37.013Z,79.40
2018-08-20T07:56:06.914Z,79.70
2018-08-20T07:58:36.701Z,79.50
2018-08-20T08:01:06.344Z,79.90
2018-08-20T08:03:36.704Z,79.80
2018-08-20T08:06:06.802Z,79.70
2018-08-20T08:08:36.658Z,79.50
2018-08-20T08:11:06.412Z,79.30
2018-08-20T08:13:36.399Z,79.50
2018-08-20T08:16:06.059Z,79.30
2018-08-20T08:18:35.837Z,79.10
2018-08-20T08:21:05.538Z,78.90
2018-08-20T08:23:35.730Z,78.80
2018-08-20T08:26:05.527Z,78.90
2018-08-20T08:28:35.504Z,78.60
2018-08-20T08:31:05.162Z,78.60
2018-08-20T08:33:34.768Z,78.30
2018-08-20T08:36:04.484Z,78.10
2018-08-20T08:38:34.245Z,78.10
2018-08-20T08:41:03.987Z,77.90
2018-08-20T08:43:33.967Z,77.90
2018-08-20T08:46:03.633Z,77.90
2018-08-20T08:48:33.345Z,78.00
2018-08-20T08:51:03.237Z,78.00
2018-08-20T08:53:33.052Z,77.70
2018-08-20T08:56:02.787Z,77.60
2018-08-20T08:58:32.551Z,77.50
2018-08-20T09:01:02.344Z,77.20
2018-08-20T09:03:32.765Z,77.10
2018-08-20T09:06:03.678Z,76.80
2018-08-20T09:08:33.618Z,77.10
2018-08-20T09:11:03.395Z,76.60
2018-08-20T09:13:33.116Z,76.60
2018-08-20T09:16:02.849Z,76.30
2018-08-20T09:18:32.635Z,76.20
2018-08-20T09:21:02.491Z,75.90
2018-08-20T09:23:32.182Z,76.20
2018-08-20T09:26:01.921Z,76.60
2018-08-20T09:28:31.542Z,75.40
2018-08-20T09:31:01.404Z,75.00
2018-08-20T09:33:31.547Z,74.60
2018-08-20T09:36:01.149Z,74.10
2018-08-20T09:38:30.923Z,73.50
2018-08-20T09:41:00.991Z,73.30
2018-08-20T09:43:30.743Z,73.10
2018-08-20T09:46:00.382Z,72.50
2018-08-20T09:48:30.321Z,71.90
2018-08-20T09:51:00.010Z,71.10
2018-08-20T09:53:29.769Z,70.80
2018-08-20T09:55:59.430Z,70.60
2018-08-20T09:58:29.260Z,69.50
2018-08-20T10:00:58.994Z,69.00
2018-08-20T10:03:28.713Z,69.50
2018-08-20T10:05:58.354Z,68.80
2018-08-20T10:08:28.098Z,68.20
2018-08-20T10:10:57.706Z,67.90
2018-08-20T10:13:27.441Z,66.60
2018-08-20T10:15:57.255Z,66.40
2018-08-20T10:18:26.877Z,66.90
2018-08-20T10:20:56.629Z,67.10
2018-08-20T10:23:26.440Z,66.30
2018-08-20T10:25:56.167Z,66.80
2018-08-20T10:28:25.870Z,65.40
2018-08-20T10:30:55.758Z,64.70
2018-08-20T10:33:25.433Z,63.90
2018-08-20T10:35:55.249Z,63.30
2018-08-20T10:38:24.980Z,62.70
2018-08-20T10:40:54.780Z,62.70
2018-08-20T10:43:24.511Z,62.60
2018-08-20T10:45:59.428Z,62.80
2018-08-20T10:48:29.074Z,62.80
2018-08-20T10:50:58.691Z,62.30
2018-08-20T10:53:28.312Z,62.00
2018-08-20T10:55:58.006Z,62.00
2018-08-20T10:58:27.910Z,62.70
2018-08-20T11:00:57.545Z,62.80
2018-08-20T11:03:27.227Z,62.10
2018-08-20T11:05:57.031Z,62.00
2018-08-20T11:08:26.769Z,62.10
2018-08-20T11:10:56.556Z,61.70
2018-08-20T11:13:26.317Z,62.50
2018-08-20T11:15:55.985Z,62.40
2018-08-20T11:18:26.273Z,62.80
2018-08-20T11:20:55.949Z,62.40
2018-08-20T11:23:25.775Z,62.10
2018-08-20T11:25:55.449Z,61.90
2018-08-20T11:28:25.213Z,62.10
2018-08-20T11:30:54.945Z,62.20
2018-08-20T11:33:24.681Z,62.40
2018-08-20T11:35:54.317Z,62.20
2018-08-20T11:38:24.110Z,62.70
2018-08-20T11:40:54.393Z,62.90
2018-08-20T11:43:24.810Z,63.10
2018-08-20T11:45:54.616Z,63.20
2018-08-20T11:48:24.294Z,63.40
2018-08-20T11:50:53.885Z,63.70
2018-08-20T11:53:23.565Z,64.10
2018-08-20T11:55:53.259Z,63.70
2018-08-20T11:58:22.890Z,63.50
2018-08-20T12:00:52.606Z,63.50
2018-08-20T12:03:22.222Z,63.90
2018-08-20T12:05:51.939Z,63.90
2018-08-20T12:08:21.703Z,64.00
2018-08-20T12:10:51.441Z,64.60
2018-08-20T12:13:21.105Z,65.00
2018-08-20T12:15:50.956Z,65.20
2018-08-20T12:18:20.554Z,65.30
2018-08-20T12:20:50.177Z,65.60
2018-08-20T12:23:19.987Z,65.80
2018-08-20T12:25:49.600Z,66.10
2018-08-20T12:28:19.457Z,65.90
2018-08-20T12:30:49.745Z,66.40
2018-08-20T12:33:19.992Z,66.60
2018-08-20T12:35:50.423Z,66.00
2018-08-20T12:38:20.780Z,67.00
2018-08-20T12:40:51.146Z,66.60
2018-08-20T12:43:21.660Z,67.00
2018-08-20T12:45:52.067Z,67.20
2018-08-20T12:48:22.531Z,67.20
2018-08-20T12:50:52.755Z,67.00
2018-08-20T12:53:23.598Z,67.60
2018-08-20T12:55:53.977Z,67.50
2018-08-20T12:58:25.200Z,67.90
2018-08-20T13:00:56.122Z,67.00
2018-08-20T13:03:27.340Z,66.60
2018-08-20T13:05:58.567Z,66.00
2018-08-20T13:08:28.891Z,65.90
2018-08-20T13:10:59.396Z,65.20
2018-08-20T13:13:30.546Z,65.20
2018-08-20T13:16:01.835Z,64.70
2018-08-20T13:18:33.039Z,64.90
2018-08-20T13:21:03.687Z,64.00
2018-08-20T13:23:34.121Z,63.80
2018-08-20T13:26:04.951Z,63.00
2018-08-20T13:28:34.847Z,62.20
2018-08-20T13:31:05.679Z,62.50
2018-08-20T13:33:35.453Z,62.00
2018-08-20T13:36:05.205Z,62.30
2018-08-20T13:38:34.917Z,62.40
2018-08-20T13:41:04.721Z,62.90
2018-08-20T13:43:34.380Z,61.70
2018-08-20T13:46:05.178Z,61.30
2018-08-20T13:48:35.005Z,60.90
2018-08-20T13:51:04.800Z,61.30
2018-08-20T13:53:34.513Z,61.60
2018-08-20T13:56:04.269Z,62.00
2018-08-20T13:58:34.062Z,61.00
2018-08-20T14:01:04.001Z,60.80
2018-08-20T14:03:34.368Z,60.40
2018-08-20T14:06:04.103Z,61.50
2018-08-20T14:08:33.873Z,60.90
2018-08-20T14:11:04.148Z,61.30
2018-08-20T14:13:34.022Z,61.60
2018-08-20T14:16:03.748Z,62.10
2018-08-20T14:18:33.409Z,62.10
2018-08-20T14:21:14.474Z,62.50
2018-08-20T14:23:46.408Z,62.20
2018-08-20T14:26:17.222Z,62.60
2018-08-20T14:28:46.985Z,62.80
2018-08-20T14:31:16.687Z,62.90
2018-08-20T14:33:46.320Z,63.10
2018-08-20T14:36:16.142Z,62.70
2018-08-20T14:38:46.314Z,62.90
2018-08-20T14:41:16.558Z,63.10
2018-08-20T14:43:46.276Z,62.80
2018-08-20T14:46:22.086Z,62.50
2018-08-20T14:48:52.862Z,62.50
2018-08-20T14:51:22.665Z,62.50
2018-08-20T14:53:52.327Z,62.60
2018-08-20T14:56:21.981Z,62.90
2018-08-20T14:58:51.728Z,62.90
2018-08-20T15:01:21.416Z,63.40
2018-08-20T15:03:51.067Z,63.20
2018-08-20T15:06:20.850Z,63.00
2018-08-20T15:08:50.568Z,62.70
2018-08-20T15:11:20.386Z,61.50
2018-08-20T15:13:50.224Z,61.30
2018-08-20T15:16:20.391Z,60.50
2018-08-20T15:18:50.103Z,59.70
2018-08-20T15:21:19.866Z,60.10
2018-08-20T15:23:49.696Z,59.00
2018-08-20T15:26:19.516Z,58.80
2018-08-20T15:28:49.130Z,58.70
2018-08-20T15:31:18.903Z,58.10
2018-08-20T15:33:48.634Z,58.00
2018-08-20T15:36:18.375Z,58.40
2018-08-20T15:38:48.034Z,58.60
2018-08-20T15:41:17.666Z,58.90
2018-08-20T15:43:47.450Z,58.00
2018-08-20T15:46:17.202Z,57.80
2018-08-20T15:48:46.814Z,57.70
2018-08-20T15:51:16.532Z,57.40
2018-08-20T15:53:46.506Z,57.10
2018-08-20T15:56:16.350Z,57.00
2018-08-20T15:58:46.118Z,55.40
2018-08-20T16:01:15.756Z,54.90
2018-08-20T16:03:45.510Z,54.50
2018-08-20T16:06:15.339Z,53.90
2018-08-20T16:08:46.130Z,53.30
2018-08-20T16:11:15.931Z,52.90
2018-08-20T16:13:45.643Z,53.60
2018-08-20T16:16:15.977Z,54.10
2018-08-20T16:18:45.721Z,54.40
2018-08-20T16:21:15.385Z,55.00
2018-08-20T16:23:45.065Z,55.40
2018-08-20T16:26:14.731Z,55.70
2018-08-20T16:28:44.607Z,55.70
2018-08-20T16:31:14.258Z,56.40
2018-08-20T16:33:44.080Z,56.40
2018-08-20T16:36:13.880Z,56.30
2018-08-20T16:38:43.507Z,55.60
2018-08-20T16:41:13.168Z,54.60
2018-08-20T16:43:42.805Z,54.30
2018-08-20T16:46:12.642Z,54.40
2018-08-20T16:48:48.229Z,54.60
2018-08-20T16:51:23.783Z,54.90
2018-08-20T16:54:01.310Z,55.40
2018-08-20T16:56:37.138Z,55.70
2018-08-20T16:59:09.701Z,56.30
2018-08-20T17:01:43.084Z,56.50
2018-08-20T17:04:31.539Z,57.00
2018-08-20T17:07:02.869Z,57.30
2018-08-20T17:09:32.573Z,57.50
2018-08-20T17:12:02.316Z,57.40
2018-08-20T17:14:32.005Z,57.50
2018-08-20T17:17:01.768Z,57.50
2018-08-20T17:19:31.527Z,57.60
2018-08-20T17:22:01.184Z,57.70
2018-08-20T17:24:36.054Z,57.80
2018-08-20T17:27:05.700Z,57.80
2018-08-20T17:29:35.397Z,57.70
2018-08-20T17:32:06.742Z,57.90
2018-08-20T17:34:40.449Z,57.70
2018-08-20T17:37:10.340Z,57.90
2018-08-20T17:39:57.835Z,58.00
2018-08-20T17:42:29.248Z,58.00
2018-08-20T17:44:59.597Z,58.10
2018-08-20T17:47:30.113Z,58.40
2018-08-20T17:50:00.840Z,58.50
2018-08-20T17:52:36.282Z,58.70
2018-08-20T17:55:06.412Z,58.70
2018-08-20T17:57:36.266Z,58.90
2018-08-20T18:00:21.953Z,59.10
2018-08-20T18:02:51.694Z,59.30
2018-08-20T18:05:22.686Z,59.50
2018-08-20T18:07:53.103Z,59.70
2018-08-20T18:10:28.082Z,59.90
2018-08-20T18:13:04.677Z,60.00
2018-08-20T18:15:40.600Z,60.30
2018-08-20T18:18:10.318Z,60.30
2018-08-20T18:20:44.339Z,60.20
2018-08-20T18:23:14.059Z,60.20
2018-08-20T18:25:43.845Z,60.20
2018-08-20T18:28:13.627Z,60.10
2018-08-20T18:30:43.451Z,60.00
2018-08-20T18:33:13.843Z,60.00
2018-08-20T18:35:43.660Z,60.10
2018-08-20T18:38:13.384Z,60.00
2018-08-20T18:40:43.033Z,60.00
2018-08-20T18:43:12.775Z,60.00
2018-08-20T18:45:42.522Z,60.10
2018-08-20T18:48:12.308Z,60.00
2018-08-20T18:50:42.177Z,59.50
2018-08-20T18:53:11.932Z,60.10
2018-08-20T18:55:57.063Z,60.10
2018-08-20T18:58:32.068Z,60.00
2018-08-20T19:01:01.720Z,60.00
2018-08-20T19:03:49.806Z,60.00
2018-08-20T19:06:19.504Z,60.00
2018-08-20T19:08:49.344Z,59.90
2018-08-20T19:11:19.228Z,60.00
2018-08-20T19:13:48.984Z,60.00
2018-08-20T19:16:36.658Z,60.00
2018-08-20T19:19:07.504Z,60.00
2018-08-20T19:21:40.108Z,60.10
2018-08-20T19:24:10.751Z,60.10
2018-08-20T19:26:40.650Z,60.20
2018-08-20T19:29:28.978Z,60.30
2018-08-20T19:31:58.971Z,60.30
2018-08-20T19:34:28.759Z,60.40
2018-08-20T19:36:58.421Z,60.50
2018-08-20T19:39:28.120Z,60.50
2018-08-20T19:41:57.797Z,60.60
2018-08-20T19:44:27.581Z,60.80
2018-08-20T19:46:57.355Z,60.80
2018-08-20T19:49:26.987Z,61.00
2018-08-20T19:51:56.771Z,61.10
2018-08-20T19:54:26.449Z,61.30
2018-08-20T19:56:56.126Z,61.40
2018-08-20T19:59:30.907Z,61.50
2018-08-20T20:02:00.606Z,62.50
2018-08-20T20:04:30.336Z,61.90
2018-08-20T20:07:00.090Z,62.20
2018-08-20T20:09:29.909Z,62.30
2018-08-20T20:11:59.715Z,62.50
2018-08-20T20:14:34.474Z,62.60
2018-08-20T20:17:04.252Z,62.70
2018-08-20T20:19:33.963Z,62.80
2018-08-20T20:22:03.934Z,62.90
2018-08-20T20:24:33.544Z,63.00
2018-08-20T20:27:03.273Z,63.00
2018-08-20T20:29:32.946Z,63.00
2018-08-20T20:32:02.777Z,63.10
2018-08-20T20:34:32.555Z,63.40
2018-08-20T20:37:02.303Z,63.30
2018-08-20T20:39:32.037Z,63.20
2018-08-20T20:42:01.851Z,63.20
2018-08-20T20:44:31.769Z,63.30
2018-08-20T20:47:01.509Z,63.30
2018-08-20T20:49:31.187Z,63.30
2018-08-20T20:52:00.937Z,63.40
2018-08-20T20:54:30.646Z,63.30
2018-08-20T20:57:00.495Z,63.40
2018-08-20T20:59:30.229Z,63.40
2018-08-20T21:01:59.957Z,63.60
2018-08-20T21:04:29.647Z,63.90
2018-08-20T21:06:59.231Z,64.00
2018-08-20T21:09:29.046Z,64.20
2018-08-20T21:11:58.834Z,64.20
2018-08-20T21:14:28.612Z,64.50
2018-08-20T21:17:01.210Z,64.60
2018-08-20T21:19:34.419Z,64.90
2018-08-20T21:22:06.804Z,65.00
2018-08-20T21:24:36.555Z,65.00
2018-08-20T21:27:26.186Z,65.20
2018-08-20T21:30:02.276Z,65.30
2018-08-20T21:32:31.971Z,65.40
2018-08-20T21:35:01.641Z,65.70
2018-08-20T21:37:31.341Z,65.90
2018-08-20T21:40:01.065Z,66.00
2018-08-20T21:42:36.226Z,66.10
2018-08-20T21:45:06.161Z,66.10
2018-08-20T21:47:35.826Z,66.20
2018-08-20T21:50:06.085Z,67.10
2018-08-20T21:52:35.915Z,66.10
2018-08-20T21:55:07.203Z,66.30
2018-08-20T21:57:41.362Z,66.50
2018-08-20T22:00:15.254Z,66.60
2018-08-20T22:02:48.853Z,66.70
2018-08-20T22:05:18.526Z,66.80
2018-08-20T22:07:48.551Z,66.80
2018-08-20T22:10:18.214Z,66.80
2018-08-20T22:12:47.908Z,66.80
2018-08-20T22:15:17.799Z,67.10
2018-08-20T22:17:47.536Z,67.20
2018-08-20T22:20:17.382Z,67.10
2018-08-20T22:22:47.106Z,67.30
2018-08-20T22:25:17.427Z,67.50
2018-08-20T22:27:52.337Z,67.50
2018-08-20T22:30:22.123Z,67.50
2018-08-20T22:32:51.854Z,67.50
2018-08-20T22:35:28.745Z,67.30
2018-08-20T22:37:58.509Z,67.40
2018-08-20T22:40:28.161Z,67.30
2018-08-20T22:42:59.256Z,67.40
2018-08-20T22:45:28.988Z,67.30
2018-08-20T22:47:58.602Z,67.40
2018-08-20T22:50:28.314Z,67.30
2018-08-20T22:52:57.942Z,67.10
2018-08-20T22:55:27.595Z,67.10
2018-08-20T22:58:08.497Z,67.20
2018-08-20T23:00:38.950Z,67.20
2018-08-20T23:03:08.659Z,67.20
2018-08-20T23:05:38.476Z,67.10
2018-08-20T23:08:13.573Z,67.10
2018-08-20T23:10:44.029Z,67.10
2018-08-20T23:13:13.689Z,67.00
2018-08-20T23:15:43.422Z,67.00
2018-08-20T23:18:13.202Z,66.90
2018-08-20T23:20:42.850Z,66.90
2018-08-20T23:23:13.243Z,66.80
2018-08-20T23:25:42.935Z,66.70
2018-08-20T23:28:12.567Z,66.50
2018-08-20T23:30:46.820Z,66.50
2018-08-20T23:33:16.506Z,66.50
2018-08-20T23:35:46.216Z,66.40
2018-08-20T23:38:15.994Z,66.60
2018-08-20T23:40:45.549Z,66.30
2018-08-20T23:43:15.247Z,66.30
2018-08-20T23:45:44.891Z,66.30
2018-08-20T23:48:14.556Z,66.30
2018-08-20T23:50:47.831Z,66.40
2018-08-20T23:53:18.269Z,66.40
2018-08-20T23:55:47.946Z,66.40
2018-08-20T23:58:17.758Z,66.50
